Time;durP1;ratioP1;P1;durP2;ratioP2;P2;SDS_P1;SDS_P2;PMS_P1;PMS_P2;Temp;Humidity;BMP_temperature;BMP_pressure;BME280_temperature;BME280_humidity;BME280_pressure;Samples;Min_cycle;Max_cycle;Signal;HPM_P1;HPM_P2
2022/03/31 00:04:14;;;;;;;11.57;5.18;;;5.90;99.90;;;;;;10344364;28;20052;-65
2022/03/31 00:09:15;;;;;;;14.40;5.13;;;5.80;99.90;;;;;;10343406;28;20042;-66
2022/03/31 00:14:17;;;;;;;20.38;6.47;;;5.70;99.90;;;;;;10344960;28;20049;-66
2022/03/31 00:19:19;;;;;;;13.75;6.25;;;5.70;99.90;;;;;;10344730;28;20108;-65
2022/03/31 00:24:21;;;;;;;15.32;5.82;;;5.60;99.90;;;;;;10342035;28;20108;-65
2022/03/31 00:29:22;;;;;;;14.23;6.15;;;5.50;99.90;;;;;;10343778;28;20046;-65
2022/03/31 00:34:26;;;;;;;13.13;5.40;;;5.40;99.90;;;;;;10342515;28;20054;-65
2022/03/31 00:39:33;;;;;;;20.58;5.57;;;5.40;99.90;;;;;;10342678;28;20049;-66
2022/03/31 00:44:35;;;;;;;13.05;6.00;;;5.40;99.90;;;;;;10341835;28;20058;-66
2022/03/31 00:49:37;;;;;;;15.02;6.63;;;5.40;99.90;;;;;;10342933;28;20499;-66
2022/03/31 00:54:40;;;;;;;16.15;5.72;;;5.40;99.90;;;;;;10342435;28;20045;-67
2022/03/31 00:59:42;;;;;;;13.65;5.45;;;5.40;99.90;;;;;;10342921;28;20056;-66
2022/03/31 01:04:44;;;;;;;13.18;5.07;;;5.40;99.90;;;;;;10342339;28;20045;-66
2022/03/31 01:09:45;;;;;;;15.38;5.75;;;5.30;99.90;;;;;;10341517;28;20073;-66
2022/03/31 01:14:48;;;;;;;17.08;5.93;;;5.30;99.90;;;;;;10342304;28;20038;-65
2022/03/31 01:19:49;;;;;;;10.20;5.10;;;5.30;99.90;;;;;;10343705;28;20076;-66
2022/03/31 01:24:51;;;;;;;13.48;5.93;;;5.40;99.90;;;;;;10342513;28;20120;-64
2022/03/31 01:29:54;;;;;;;18.13;5.40;;;5.40;99.90;;;;;;10341823;28;20054;-65
2022/03/31 01:34:56;;;;;;;15.77;5.43;;;5.40;99.90;;;;;;10345602;28;20058;-65
2022/03/31 01:39:59;;;;;;;13.52;5.40;;;5.40;99.90;;;;;;10355016;28;20057;-66
2022/03/31 01:45:03;;;;;;;14.38;5.07;;;5.50;99.90;;;;;;10350556;28;20078;-65
2022/03/31 01:50:09;;;;;;;12.55;5.78;;;5.50;99.90;;;;;;10348865;28;20041;-66
2022/03/31 01:55:11;;;;;;;15.30;5.78;;;5.50;99.90;;;;;;10344902;28;20122;-64
2022/03/31 02:00:13;;;;;;;15.77;5.78;;;5.50;99.90;;;;;;10348057;28;20046;-64
2022/03/31 02:05:15;;;;;;;13.52;4.53;;;5.50;99.90;;;;;;10348661;28;20045;-65
2022/03/31 02:10:17;;;;;;;14.73;6.00;;;5.50;99.90;;;;;;10348087;28;20465;-65
2022/03/31 02:15:20;;;;;;;13.45;5.45;;;5.50;99.90;;;;;;10325383;28;20049;-65
2022/03/31 02:20:24;;;;;;;19.77;6.50;;;5.50;99.90;;;;;;10347946;28;20046;-69
2022/03/31 02:25:27;;;;;;;17.70;6.18;;;5.50;99.90;;;;;;10347687;28;20108;-65
2022/03/31 02:30:29;;;;;;;14.43;5.35;;;5.40;99.90;;;;;;10347342;28;20476;-66
2022/03/31 02:35:31;;;;;;;15.00;5.68;;;5.40;99.90;;;;;;10347653;28;20065;-66
2022/03/31 02:40:33;;;;;;;20.30;6.28;;;5.30;99.90;;;;;;10345908;28;20046;-66
2022/03/31 02:45:34;;;;;;;15.32;5.32;;;5.30;99.90;;;;;;10348670;28;20412;-66
2022/03/31 02:50:36;;;;;;;15.00;5.57;;;5.20;99.90;;;;;;10347388;28;20046;-65
2022/03/31 02:55:38;;;;;;;16.10;5.63;;;5.10;99.90;;;;;;10347495;28;20053;-66
2022/03/31 03:00:39;;;;;;;22.50;6.75;;;5.10;99.90;;;;;;10345670;28;20104;-65
2022/03/31 03:05:42;;;;;;;15.02;5.53;;;5.20;99.90;;;;;;10347479;28;20037;-65
2022/03/31 03:10:43;;;;;;;13.18;5.50;;;5.20;99.90;;;;;;10342637;28;20538;-67
2022/03/31 03:15:46;;;;;;;13.75;5.63;;;5.20;99.90;;;;;;10346298;28;20053;-67
2022/03/31 03:20:48;;;;;;;13.77;5.30;;;5.30;99.90;;;;;;10343166;28;20122;-65
2022/03/31 03:25:50;;;;;;;17.80;6.32;;;5.20;99.90;;;;;;10344727;28;20057;-64
2022/03/31 03:30:52;;;;;;;19.48;5.65;;;5.30;99.90;;;;;;10346267;28;20255;-65
2022/03/31 03:35:54;;;;;;;12.57;5.28;;;5.30;99.90;;;;;;10344889;28;20046;-64
2022/03/31 03:40:55;;;;;;;15.82;6.75;;;5.30;99.90;;;;;;10347343;28;20488;-64
2022/03/31 03:45:57;;;;;;;18.02;6.03;;;5.30;99.90;;;;;;10324481;28;20052;-65
2022/03/31 03:51:00;;;;;;;15.93;6.15;;;5.30;99.90;;;;;;10344599;28;20064;-65
2022/03/31 03:56:01;;;;;;;17.13;5.65;;;5.30;99.90;;;;;;10343354;28;20749;-65
2022/03/31 04:01:03;;;;;;;15.70;5.50;;;5.30;99.90;;;;;;10344177;28;20104;-65
2022/03/31 04:06:05;;;;;;;15.48;5.60;;;5.30;99.90;;;;;;10345142;28;20049;-64
2022/03/31 04:11:07;;;;;;;15.98;6.03;;;5.20;99.90;;;;;;10322289;28;20042;-64
2022/03/31 04:16:08;;;;;;;16.73;6.30;;;5.20;99.90;;;;;;10345258;28;20046;-65
2022/03/31 04:21:10;;;;;;;17.60;7.15;;;5.20;99.90;;;;;;10344363;28;20050;-64
2022/03/31 04:26:12;;;;;;;16.35;5.90;;;5.10;99.90;;;;;;10342116;28;20049;-63
2022/03/31 04:31:13;;;;;;;19.70;6.28;;;5.10;99.90;;;;;;10341855;28;20049;-63
2022/03/31 04:36:15;;;;;;;14.82;5.88;;;5.00;99.90;;;;;;10338863;28;20053;-64
2022/03/31 04:41:17;;;;;;;18.10;6.00;;;4.90;99.90;;;;;;10339244;28;20468;-64
2022/03/31 04:46:19;;;;;;;17.10;5.72;;;4.80;99.90;;;;;;10342796;28;20053;-64
2022/03/31 04:51:21;;;;;;;17.40;6.32;;;4.70;99.90;;;;;;10342051;28;20053;-64
2022/03/31 04:56:22;;;;;;;18.17;6.28;;;4.50;99.90;;;;;;10343199;28;20042;-64
2022/03/31 05:01:24;;;;;;;18.77;5.55;;;4.40;99.90;;;;;;10336795;28;20120;-64
2022/03/31 05:06:26;;;;;;;18.33;6.40;;;4.40;99.90;;;;;;10340871;28;20467;-59
2022/03/31 05:11:28;;;;;;;17.83;6.30;;;4.30;99.90;;;;;;10344512;28;20050;-60
2022/03/31 05:16:29;;;;;;;19.85;5.75;;;4.30;99.90;;;;;;10349675;28;20049;-60
2022/03/31 05:21:31;;;;;;;20.30;6.65;;;4.20;99.90;;;;;;10350689;28;20065;-60
2022/03/31 05:26:33;;;;;;;17.05;5.75;;;4.20;99.90;;;;;;10352194;28;20055;-61
2022/03/31 05:31:35;;;;;;;16.35;6.43;;;4.20;99.90;;;;;;10349819;28;20141;-60
2022/03/31 05:36:37;;;;;;;15.13;5.88;;;4.30;99.90;;;;;;10349525;28;20058;-61
2022/03/31 05:41:38;;;;;;;17.17;7.35;;;4.30;99.90;;;;;;10351233;28;20049;-60
2022/03/31 05:46:42;;;;;;;18.60;5.85;;;4.40;99.90;;;;;;10348231;28;20119;-60
2022/03/31 05:51:44;;;;;;;21.85;6.65;;;4.60;99.90;;;;;;10351843;28;20058;-60
2022/03/31 05:56:46;;;;;;;17.25;5.93;;;4.60;99.90;;;;;;10350393;28;20111;-60
2022/03/31 06:01:48;;;;;;;17.73;5.90;;;4.80;99.90;;;;;;10344094;28;20041;-60
2022/03/31 06:06:50;;;;;;;15.52;5.85;;;4.90;99.90;;;;;;10354391;28;20060;-60
2022/03/31 06:11:51;;;;;;;20.63;5.97;;;5.00;99.90;;;;;;10344472;28;20050;-60
2022/03/31 06:16:53;;;;;;;20.48;6.28;;;5.10;99.90;;;;;;10349944;28;20065;-60
2022/03/31 06:21:55;;;;;;;15.90;6.25;;;5.20;99.90;;;;;;10348122;28;20596;-60
2022/03/31 06:26:57;;;;;;;17.45;6.97;;;5.30;99.90;;;;;;10346607;28;20046;-60
2022/03/31 06:31:59;;;;;;;19.25;6.97;;;5.30;99.90;;;;;;10343757;28;20112;-61
2022/03/31 06:37:01;;;;;;;17.70;6.82;;;5.40;99.90;;;;;;10348583;28;20111;-60
2022/03/31 06:42:04;;;;;;;14.75;5.72;;;5.50;99.90;;;;;;10345935;28;20045;-60
2022/03/31 06:47:05;;;;;;;14.48;6.13;;;5.50;99.90;;;;;;10344874;28;20475;-60
2022/03/31 06:52:07;;;;;;;19.38;5.35;;;5.40;99.90;;;;;;10347847;28;20049;-61
2022/03/31 06:57:09;;;;;;;13.40;5.85;;;5.50;99.90;;;;;;10346826;28;20494;-60
2022/03/31 07:02:10;;;;;;;16.17;6.15;;;5.60;99.90;;;;;;10345673;28;20049;-60
2022/03/31 07:07:13;;;;;;;17.23;6.45;;;5.60;99.90;;;;;;10347106;28;20052;-60
2022/03/31 07:12:14;;;;;;;20.48;6.82;;;5.70;99.90;;;;;;10346305;28;20046;-60
2022/03/31 07:17:16;;;;;;;19.40;7.32;;;5.80;99.90;;;;;;10346803;28;20053;-60
2022/03/31 07:22:18;;;;;;;20.02;6.70;;;5.90;99.90;;;;;;10344197;28;20103;-61
2022/03/31 07:27:20;;;;;;;16.75;5.97;;;6.00;99.90;;;;;;10344149;28;20061;-61
2022/03/31 07:32:22;;;;;;;20.10;6.28;;;6.10;97.70;;;;;;10345912;28;20433;-61
2022/03/31 07:37:24;;;;;;;16.00;6.78;;;6.20;97.10;;;;;;10345166;28;20038;-61
2022/03/31 07:42:25;;;;;;;17.67;6.22;;;6.30;97.20;;;;;;10345095;28;20050;-61
2022/03/31 07:47:27;;;;;;;15.43;6.60;;;6.30;96.90;;;;;;10343972;28;20049;-61
2022/03/31 07:52:30;;;;;;;20.02;8.75;;;6.40;96.50;;;;;;10345541;28;20068;-61
2022/03/31 07:57:39;;;;;;;19.33;7.72;;;6.40;96.60;;;;;;10344507;28;20056;-62
2022/03/31 08:02:43;;;;;;;18.40;7.50;;;6.60;96.80;;;;;;10341576;28;20488;-61
2022/03/31 08:07:45;;;;;;;19.23;7.43;;;6.60;95.80;;;;;;10344209;28;20053;-61
2022/03/31 08:12:47;;;;;;;23.83;7.57;;;6.80;96.30;;;;;;10341880;28;20046;-61
2022/03/31 08:17:50;;;;;;;18.60;6.13;;;6.90;95.70;;;;;;10343582;28;20049;-62
2022/03/31 08:22:51;;;;;;;12.45;5.85;;;6.80;94.90;;;;;;10341188;28;20057;-62
2022/03/31 08:27:53;;;;;;;18.95;6.55;;;7.00;96.50;;;;;;10344210;28;20062;-61
2022/03/31 08:32:55;;;;;;;14.90;6.25;;;7.10;96.10;;;;;;10345570;28;20045;-61
2022/03/31 08:37:56;;;;;;;20.73;7.28;;;6.90;93.50;;;;;;10343318;28;20060;-61
2022/03/31 08:43:00;;;;;;;15.65;6.78;;;6.90;94.40;;;;;;10342994;28;20100;-61
2022/03/31 08:48:04;;;;;;;19.27;6.57;;;7.20;95.20;;;;;;10343878;28;20053;-61
2022/03/31 08:53:06;;;;;;;17.23;7.15;;;7.30;93.10;;;;;;10407063;23;20034;-92
2022/03/31 08:58:09;;;;;;;14.45;5.97;;;7.50;92.30;;;;;;10262000;28;20161;-91
2022/03/31 09:03:11;;;;;;;18.63;6.35;;;7.50;91.20;;;;;;10259956;28;20089;-91
2022/03/31 09:08:16;;;;;;;14.00;6.22;;;7.60;91.40;;;;;;10289175;28;20038;-91
2022/03/31 09:13:22;;;;;;;15.35;6.95;;;7.80;90.70;;;;;;10241831;28;20129;-91
2022/03/31 09:18:26;;;;;;;17.88;7.00;;;7.70;90.60;;;;;;10295835;28;20125;-92
2022/03/31 09:23:41;;;;;;;20.10;7.93;;;7.90;90.20;;;;;;10222790;28;20057;-92
2022/03/31 09:28:44;;;;;;;22.80;8.18;;;8.00;88.40;;;;;;10291639;28;20060;-91
2022/03/31 09:33:54;;;;;;;16.42;6.07;;;8.20;88.00;;;;;;10083183;28;20047;-92
2022/03/31 09:38:59;;;;;;;16.83;6.53;;;8.20;85.10;;;;;;10273261;28;20053;-92
2022/03/31 09:44:08;;;;;;;19.45;6.65;;;8.40;86.00;;;;;;10293464;28;20054;-92
2022/03/31 09:49:54;;;;;;;21.58;8.40;;;8.50;84.10;;;;;;10615295;27;20119;-66
2022/03/31 09:54:56;;;;;;;19.45;7.53;;;8.60;84.40;;;;;;10551816;28;20047;-66
2022/03/31 09:59:58;;;;;;;15.82;6.78;;;8.70;84.10;;;;;;10545749;28;20069;-66
2022/03/31 10:05:00;;;;;;;16.10;6.53;;;8.80;83.30;;;;;;10556844;28;20044;-66
2022/03/31 10:10:02;;;;;;;17.38;7.03;;;8.80;83.10;;;;;;10560523;28;20120;-66
2022/03/31 10:15:17;;;;;;;14.02;6.95;;;9.00;82.50;;;;;;10554379;28;20051;-66
2022/03/31 10:20:21;;;;;;;17.67;6.97;;;9.10;82.70;;;;;;10555467;28;20401;-66
2022/03/31 10:25:33;;;;;;;12.60;6.40;;;9.20;81.40;;;;;;10544682;28;20055;-66
2022/03/31 10:30:35;;;;;;;16.35;6.97;;;9.30;80.80;;;;;;10553507;28;20040;-66
2022/03/31 10:35:39;;;;;;;26.55;11.02;;;9.40;80.80;;;;;;10543541;28;20074;-66
2022/03/31 10:40:49;;;;;;;19.58;6.82;;;9.20;80.10;;;;;;10530605;28;20044;-66
2022/03/31 10:45:54;;;;;;;16.20;8.07;;;9.40;81.20;;;;;;10547980;28;20048;-66
2022/03/31 10:51:05;;;;;;;16.55;7.55;;;9.30;81.60;;;;;;10558033;27;20536;-67
2022/03/31 10:56:19;;;;;;;16.48;6.50;;;9.30;80.80;;;;;;10535972;27;20083;-66
2022/03/31 11:01:23;;;;;;;19.73;8.15;;;9.40;80.20;;;;;;10522595;28;20052;-66
2022/03/31 11:06:25;;;;;;;16.13;7.38;;;9.40;80.00;;;;;;10521331;28;20130;-66
2022/03/31 11:11:29;;;;;;;17.10;7.70;;;9.40;80.40;;;;;;10521785;28;20052;-67
2022/03/31 11:16:37;;;;;;;18.60;8.00;;;9.60;80.10;;;;;;10523196;28;20040;-68
2022/03/31 11:21:40;;;;;;;15.95;6.50;;;9.80;82.20;;;;;;10502005;28;20075;-66
2022/03/31 11:26:44;;;;;;;17.10;6.88;;;10.00;80.90;;;;;;10502210;28;20496;-66
2022/03/31 11:31:51;;;;;;;14.85;6.78;;;10.20;81.00;;;;;;10524457;28;20460;-66
2022/03/31 11:36:58;;;;;;;15.90;7.10;;;10.40;81.10;;;;;;10521471;28;20048;-66
2022/03/31 11:42:00;;;;;;;19.00;7.55;;;10.60;79.50;;;;;;10520504;28;20554;-66
2022/03/31 11:47:03;;;;;;;14.30;6.63;;;10.90;78.70;;;;;;10519291;28;20046;-66
2022/03/31 11:52:07;;;;;;;16.05;6.55;;;10.90;76.10;;;;;;10501732;28;20063;-67
2022/03/31 11:57:12;;;;;;;16.42;6.88;;;11.10;75.30;;;;;;10513020;28;20044;-66
2022/03/31 12:02:16;;;;;;;16.35;6.63;;;10.90;74.50;;;;;;10516150;28;20627;-66
2022/03/31 12:07:19;;;;;;;15.30;6.38;;;10.80;75.10;;;;;;10523692;28;20057;-64
2022/03/31 12:12:21;;;;;;;14.57;6.80;;;10.90;74.90;;;;;;10504828;28;20086;-63
2022/03/31 12:17:24;;;;;;;17.33;7.55;;;10.90;74.50;;;;;;10519972;28;20047;-63
2022/03/31 12:22:32;;;;;;;14.95;6.28;;;10.90;74.90;;;;;;10518438;28;20075;-63
2022/03/31 12:27:45;;;;;;;18.65;6.88;;;10.90;76.00;;;;;;10518548;28;20134;-64
2022/03/31 12:32:48;;;;;;;11.80;5.47;;;10.80;76.40;;;;;;10517728;28;20138;-63
2022/03/31 12:37:51;;;;;;;17.40;7.43;;;10.70;76.30;;;;;;10520076;28;20390;-63
2022/03/31 12:43:00;;;;;;;15.57;5.82;;;10.60;76.00;;;;;;10494325;28;20482;-63
2022/03/31 12:48:08;;;;;;;13.88;5.40;;;10.40;77.10;;;;;;10510452;28;20486;-63
2022/03/31 12:53:10;;;;;;;14.43;6.18;;;10.40;77.20;;;;;;10516523;28;20044;-63
2022/03/31 12:58:12;;;;;;;14.73;6.10;;;10.40;77.90;;;;;;10524880;28;20047;-62
2022/03/31 13:03:15;;;;;;;11.85;5.32;;;10.30;76.80;;;;;;10520875;28;20093;-61
2022/03/31 13:08:17;;;;;;;13.15;5.78;;;10.30;78.00;;;;;;10517969;28;20040;-61
2022/03/31 13:13:19;;;;;;;13.90;5.95;;;10.20;77.80;;;;;;10525862;28;20489;-61
2022/03/31 13:18:41;;;;;;;15.23;5.88;;;10.20;77.30;;;;;;10523440;28;20083;-65
2022/03/31 13:23:43;;;;;;;14.48;5.95;;;10.10;77.60;;;;;;10514040;28;20064;-64
2022/03/31 13:28:45;;;;;;;11.10;5.10;;;10.20;77.20;;;;;;10511203;28;20101;-64
2022/03/31 13:33:46;;;;;;;15.60;5.20;;;10.20;77.10;;;;;;10517893;28;20036;-63
2022/03/31 13:38:48;;;;;;;14.75;6.00;;;10.10;76.20;;;;;;10515413;28;20059;-64
2022/03/31 13:43:50;;;;;;;12.30;5.50;;;10.10;76.90;;;;;;10510231;28;20059;-64
2022/03/31 13:48:52;;;;;;;11.82;5.40;;;10.10;78.00;;;;;;10515986;28;20055;-64
2022/03/31 13:53:56;;;;;;;13.95;5.70;;;10.00;79.10;;;;;;10497113;28;20468;-64
2022/03/31 14:04:18;;;;;;;14.98;7.00;;;9.70;80.70;;;;;;10531926;28;20554;-64
2022/03/31 14:09:22;;;;;;;13.88;6.03;;;9.60;83.30;;;;;;10517592;28;20048;-64
2022/03/31 14:14:27;;;;;;;13.50;5.88;;;9.60;85.80;;;;;;10522789;28;20074;-65
2022/03/31 14:19:33;;;;;;;11.73;5.63;;;9.60;85.20;;;;;;10524532;28;20046;-65
2022/03/31 14:24:36;;;;;;;11.70;6.20;;;9.60;85.40;;;;;;10510840;28;20048;-66
2022/03/31 14:29:40;;;;;;;8.45;4.90;;;9.60;86.70;;;;;;10497878;28;20048;-65
2022/03/31 14:34:42;;;;;;;9.48;4.63;;;9.50;86.70;;;;;;10517257;28;20044;-65
2022/03/31 14:39:46;;;;;;;12.38;4.88;;;9.40;88.70;;;;;;10536673;28;20046;-65
2022/03/31 14:44:48;;;;;;;11.45;5.25;;;9.40;90.50;;;;;;10513702;28;20062;-65
2022/03/31 14:49:50;;;;;;;11.95;5.55;;;9.30;91.20;;;;;;10449594;28;20526;-65
2022/03/31 14:54:52;;;;;;;9.32;5.25;;;9.30;90.70;;;;;;10459958;28;20041;-65
2022/03/31 14:59:54;;;;;;;10.82;5.78;;;9.10;92.20;;;;;;10455874;28;20483;-64
2022/03/31 15:04:56;;;;;;;15.90;7.65;;;9.10;93.90;;;;;;10458264;28;20490;-66
2022/03/31 15:15:18;;;;;;;15.43;6.97;;;8.60;99.90;;;;;;10453632;28;20111;-66
2022/03/31 15:20:19;;;;;;;19.02;7.72;;;8.50;99.90;;;;;;10459360;28;20056;-66
2022/03/31 15:25:21;;;;;;;17.05;8.07;;;8.40;99.90;;;;;;10448568;28;20095;-66
2022/03/31 15:30:23;;;;;;;20.42;7.93;;;8.30;99.90;;;;;;10452674;28;20573;-66
2022/03/31 15:35:25;;;;;;;19.38;8.77;;;8.30;99.90;;;;;;10443228;28;20110;-66
2022/03/31 15:40:27;;;;;;;20.55;8.13;;;8.20;99.90;;;;;;10453087;28;20040;-66
2022/03/31 15:45:29;;;;;;;19.52;9.13;;;8.10;99.90;;;;;;10466340;28;20098;-66
2022/03/31 15:50:31;;;;;;;24.40;8.85;;;8.10;99.90;;;;;;10534621;28;20068;-66
2022/03/31 15:55:32;;;;;;;21.92;9.40;;;8.10;99.90;;;;;;10516937;28;20048;-65
2022/03/31 16:00:34;;;;;;;19.60;8.18;;;8.00;99.90;;;;;;10513311;28;20047;-65
2022/03/31 16:05:36;;;;;;;21.17;8.88;;;8.00;99.90;;;;;;10527294;28;20457;-66
2022/03/31 16:10:42;;;;;;;16.95;7.78;;;8.00;99.90;;;;;;10506568;28;20225;-66
2022/03/31 16:15:43;;;;;;;17.50;8.52;;;8.00;99.90;;;;;;10527225;28;20040;-66
2022/03/31 16:20:45;;;;;;;21.23;8.05;;;8.00;99.90;;;;;;10516041;28;20075;-65
2022/03/31 16:25:48;;;;;;;19.35;8.60;;;7.80;99.90;;;;;;10518797;28;20055;-65
2022/03/31 16:30:53;;;;;;;15.20;7.53;;;7.80;99.90;;;;;;10523487;28;20222;-65
2022/03/31 16:35:56;;;;;;;17.50;7.35;;;7.70;99.90;;;;;;10522966;28;20047;-66
2022/03/31 16:40:59;;;;;;;15.95;7.18;;;7.70;99.90;;;;;;10517202;28;20077;-65
2022/03/31 16:46:01;;;;;;;18.23;7.57;;;7.60;99.90;;;;;;10526731;28;20040;-64
2022/03/31 16:51:03;;;;;;;16.38;7.68;;;7.50;99.90;;;;;;10512633;28;20048;-65
2022/03/31 16:56:05;;;;;;;16.08;6.70;;;7.40;99.90;;;;;;10497033;28;20047;-66
2022/03/31 17:01:07;;;;;;;13.25;6.03;;;7.40;99.90;;;;;;10523511;28;20070;-65
2022/03/31 17:06:15;;;;;;;14.77;6.93;;;7.30;99.90;;;;;;10521474;28;20045;-65
2022/03/31 17:11:16;;;;;;;14.85;6.15;;;7.30;99.90;;;;;;10520555;28;20044;-65
2022/03/31 17:16:19;;;;;;;11.65;5.90;;;7.20;99.90;;;;;;10520217;28;20043;-65
2022/03/31 17:21:21;;;;;;;11.90;5.60;;;7.20;99.90;;;;;;10529680;28;20161;-65
2022/03/31 17:26:23;;;;;;;12.80;6.28;;;7.10;99.90;;;;;;10499546;28;20055;-65
2022/03/31 17:31:25;;;;;;;14.20;5.20;;;7.00;99.90;;;;;;10507889;28;20486;-65
2022/03/31 17:36:27;;;;;;;13.40;5.55;;;6.90;99.90;;;;;;10509258;28;20044;-65
2022/03/31 17:41:29;;;;;;;15.40;6.60;;;6.80;99.90;;;;;;10511790;28;20036;-65
2022/03/31 17:46:31;;;;;;;14.13;6.43;;;6.80;99.90;;;;;;10516861;28;20354;-62
2022/03/31 17:51:33;;;;;;;14.13;5.40;;;6.70;99.90;;;;;;10527548;28;20042;-63
2022/03/31 17:56:36;;;;;;;11.85;5.35;;;6.70;99.90;;;;;;10525114;28;20101;-62
2022/03/31 18:01:38;;;;;;;10.90;4.88;;;6.60;99.90;;;;;;10505729;28;20972;-63
2022/03/31 18:06:40;;;;;;;11.57;5.00;;;6.50;99.90;;;;;;10515052;28;20056;-64
2022/03/31 18:11:42;;;;;;;8.90;3.97;;;6.50;99.90;;;;;;10514012;28;20040;-64
2022/03/31 18:16:44;;;;;;;12.18;4.72;;;6.30;99.90;;;;;;10522496;28;20383;-65
2022/03/31 18:21:53;;;;;;;13.23;5.47;;;6.20;99.90;;;;;;10525384;28;20505;-66
2022/03/31 18:26:55;;;;;;;13.23;6.05;;;6.20;99.90;;;;;;10534903;28;20048;-66
2022/03/31 18:37:24;;;;;;;11.60;4.55;;;6.00;99.90;;;;;;10503458;28;20101;-65
2022/03/31 18:42:26;;;;;;;12.10;5.07;;;5.80;99.90;;;;;;10457377;28;20467;-66
2022/03/31 18:47:27;;;;;;;11.38;5.40;;;5.80;99.90;;;;;;10536090;28;20109;-66
2022/03/31 18:52:30;;;;;;;12.68;5.82;;;5.70;99.90;;;;;;10527671;28;20055;-66
2022/03/31 18:57:32;;;;;;;12.30;5.22;;;5.70;99.90;;;;;;10528116;28;20043;-65
2022/03/31 19:02:35;;;;;;;10.30;4.28;;;5.60;99.90;;;;;;10501349;28;20095;-65
2022/03/31 19:07:37;;;;;;;9.80;4.60;;;5.50;99.90;;;;;;10524417;28;20039;-65
2022/03/31 19:12:39;;;;;;;11.25;5.05;;;5.50;99.90;;;;;;10511772;28;20068;-65
2022/03/31 19:17:43;;;;;;;13.60;4.93;;;5.40;99.90;;;;;;10522389;28;20109;-65
2022/03/31 19:22:45;;;;;;;11.70;5.40;;;5.40;99.90;;;;;;10527509;28;20052;-65
2022/03/31 19:27:51;;;;;;;11.10;5.00;;;5.40;99.90;;;;;;10521829;28;20384;-65
2022/03/31 19:32:53;;;;;;;15.35;5.93;;;5.30;99.90;;;;;;10524228;28;20113;-66
2022/03/31 19:37:55;;;;;;;14.32;6.22;;;5.30;99.90;;;;;;10519916;28;20438;-64
2022/03/31 19:42:57;;;;;;;12.55;6.53;;;5.30;99.90;;;;;;10533572;28;20693;-66
2022/03/31 19:48:00;;;;;;;15.23;7.20;;;5.20;99.90;;;;;;10514740;28;20206;-66
2022/03/31 19:53:01;;;;;;;14.80;6.57;;;5.20;99.90;;;;;;10526115;28;20643;-67
2022/03/31 19:58:03;;;;;;;13.13;6.05;;;5.20;99.90;;;;;;10523347;28;20379;-66
2022/03/31 20:03:07;;;;;;;13.32;6.28;;;5.20;99.90;;;;;;10520441;28;20044;-66
2022/03/31 20:08:09;;;;;;;14.57;6.95;;;5.10;99.90;;;;;;10521404;28;20059;-66
2022/03/31 20:13:12;;;;;;;16.80;7.15;;;5.00;99.90;;;;;;10529998;28;20059;-66
2022/03/31 20:18:14;;;;;;;17.73;7.85;;;4.90;99.90;;;;;;10518926;28;20070;-67
2022/03/31 20:23:18;;;;;;;15.18;7.68;;;4.80;99.90;;;;;;10510678;28;20101;-65
2022/03/31 20:28:23;;;;;;;17.30;7.20;;;4.80;99.90;;;;;;10519680;28;20506;-65
2022/03/31 20:33:24;;;;;;;16.92;7.57;;;4.80;99.90;;;;;;10522109;28;20043;-65
2022/03/31 20:38:27;;;;;;;16.45;7.38;;;4.80;99.90;;;;;;10510534;28;20493;-65
2022/03/31 20:43:29;;;;;;;17.30;7.70;;;4.70;99.90;;;;;;10518877;28;20554;-65
2022/03/31 20:48:30;;;;;;;17.35;7.75;;;4.70;99.90;;;;;;10522463;28;20052;-66
2022/03/31 20:53:32;;;;;;;14.68;7.97;;;4.70;99.90;;;;;;10528792;28;20397;-66
2022/03/31 20:58:34;;;;;;;14.55;7.40;;;4.60;99.90;;;;;;10523574;28;20726;-66
2022/03/31 21:03:36;;;;;;;15.10;6.88;;;4.50;99.90;;;;;;10527027;28;20051;-66
2022/03/31 21:08:37;;;;;;;15.70;7.70;;;4.60;99.90;;;;;;10516036;28;20052;-65
2022/03/31 21:13:39;;;;;;;16.75;7.45;;;4.50;99.90;;;;;;10514945;28;20052;-65
2022/03/31 21:18:41;;;;;;;12.82;6.28;;;4.50;99.90;;;;;;10516777;28;20044;-65
2022/03/31 21:23:43;;;;;;;13.93;6.80;;;4.40;99.90;;;;;;10513629;28;20047;-65
2022/03/31 21:28:44;;;;;;;12.18;6.78;;;4.40;99.90;;;;;;10512703;28;20050;-65
2022/03/31 21:33:46;;;;;;;16.85;7.28;;;4.40;99.90;;;;;;10515499;28;20105;-65
2022/03/31 21:38:48;;;;;;;16.95;6.95;;;4.30;99.90;;;;;;10515479;28;20101;-65
2022/03/31 21:43:49;;;;;;;12.85;6.22;;;4.30;99.90;;;;;;10510107;28;20074;-65
2022/03/31 21:48:52;;;;;;;11.65;7.05;;;4.30;99.90;;;;;;10518097;28;20048;-66
2022/03/31 21:53:54;;;;;;;14.98;8.18;;;4.20;99.90;;;;;;10509469;28;20051;-65
2022/03/31 21:58:56;;;;;;;16.08;7.57;;;4.20;99.90;;;;;;10513396;28;20435;-65
2022/03/31 22:03:59;;;;;;;14.57;7.07;;;4.30;99.90;;;;;;10518967;28;20049;-66
2022/03/31 22:14:27;;;;;;;16.52;7.97;;;4.20;99.90;;;;;;10524337;28;20044;-65
2022/03/31 22:19:30;;;;;;;13.13;6.95;;;4.10;99.90;;;;;;10521578;28;20455;-65
2022/03/31 22:24:34;;;;;;;13.63;6.55;;;4.20;99.90;;;;;;10529381;28;20044;-66
2022/03/31 22:29:36;;;;;;;14.15;6.70;;;4.20;99.90;;;;;;10520015;28;20101;-66
2022/03/31 22:34:39;;;;;;;15.20;7.30;;;4.10;99.90;;;;;;10505475;28;20063;-66
2022/03/31 22:39:41;;;;;;;19.13;8.38;;;4.10;99.90;;;;;;10516684;28;20406;-67
2022/03/31 22:44:43;;;;;;;17.08;6.57;;;4.10;99.90;;;;;;10511168;28;20047;-66
2022/03/31 22:49:45;;;;;;;13.50;6.95;;;4.10;99.90;;;;;;10508778;28;20044;-65
2022/03/31 22:54:46;;;;;;;15.90;8.18;;;4.10;99.90;;;;;;10507993;28;20098;-66
2022/03/31 22:59:48;;;;;;;12.75;7.07;;;4.00;99.90;;;;;;10522561;28;20055;-66
2022/03/31 23:04:51;;;;;;;12.75;6.63;;;4.00;99.90;;;;;;10528407;28;20060;-66
2022/03/31 23:09:54;;;;;;;12.68;6.03;;;4.00;99.90;;;;;;10518243;28;20708;-66
2022/03/31 23:14:56;;;;;;;16.65;6.78;;;3.90;99.90;;;;;;10518424;28;20039;-66
2022/03/31 23:19:58;;;;;;;14.02;7.30;;;3.90;99.90;;;;;;10518361;28;20097;-66
2022/03/31 23:24:59;;;;;;;14.25;6.68;;;4.00;99.90;;;;;;10529538;28;20039;-65
2022/03/31 23:30:01;;;;;;;11.82;6.32;;;3.90;99.90;;;;;;10521989;28;20453;-66
2022/03/31 23:35:04;;;;;;;12.82;6.95;;;4.00;99.90;;;;;;10525277;28;20044;-66
2022/03/31 23:40:07;;;;;;;12.88;7.30;;;4.00;99.90;;;;;;10519969;28;20048;-66
2022/03/31 23:45:13;;;;;;;13.73;6.80;;;4.10;99.90;;;;;;10522165;28;20124;-66
2022/03/31 23:50:15;;;;;;;15.57;6.93;;;4.00;99.90;;;;;;10523928;28;20074;-66
2022/03/31 23:55:17;;;;;;;11.55;6.63;;;4.00;99.90;;;;;;10518934;28;20165;-66
